Time;durP1;ratioP1;P1;durP2;ratioP2;P2;SDS_P1;SDS_P2;PMS_P1;PMS_P2;Temp;Humidity;BMP_temperature;BMP_pressure;BME280_temperature;BME280_humidity;BME280_pressure;Samples;Min_cycle;Max_cycle;Signal;HPM_P1;HPM_P2
2022/08/13 00:02:18;;;;;;;15.03;12.47;;;;;;;19.27;65.22;100515.25;2063881;84;27806;-61
2022/08/13 00:05:24;;;;;;;14.73;12.93;;;;;;;19.24;65.57;100518.22;2065017;84;30044;-62
2022/08/13 00:08:23;;;;;;;13.40;12.00;;;;;;;19.21;65.97;100518.98;2056418;85;30978;-61
2022/08/13 00:14:46;;;;;;;14.58;13.10;;;;;;;19.14;66.30;100511.84;2073711;85;30605;-60
2022/08/13 00:17:49;;;;;;;16.05;13.32;;;;;;;19.12;66.35;100510.59;2186268;80;28278;-61
2022/08/13 00:20:54;;;;;;;15.90;13.05;;;;;;;19.10;66.79;100522.10;2147743;81;29654;-61
2022/08/13 00:23:57;;;;;;;13.93;12.53;;;;;;;19.07;66.94;100522.34;2146383;82;31076;-61
2022/08/13 00:26:59;;;;;;;14.80;13.32;;;;;;;19.04;67.29;100514.92;2144414;80;34161;-61
2022/08/13 00:30:07;;;;;;;14.03;12.63;;;;;;;19.02;66.99;100515.57;2140914;81;29394;-62
2022/08/13 00:33:12;;;;;;;13.43;12.03;;;;;;;19.00;67.21;100518.39;2132669;80;27758;-62
2022/08/13 00:36:16;;;;;;;14.93;13.08;;;;;;;18.97;67.42;100519.52;2134069;82;30029;-66
2022/08/13 00:39:17;;;;;;;14.65;12.37;;;;;;;18.94;67.46;100510.26;2153926;82;31894;-62
2022/08/13 00:42:21;;;;;;;14.63;12.93;;;;;;;18.94;67.60;100512.09;2139151;81;33388;-62
2022/08/13 00:45:22;;;;;;;13.78;12.05;;;;;;;18.96;67.80;100515.55;2144847;82;30195;-63
2022/08/13 00:48:46;;;;;;;14.35;12.93;;;;;;;18.97;67.60;100504.58;2151002;82;27658;-63
2022/08/13 00:51:47;;;;;;;12.90;11.65;;;;;;;19.01;67.85;100511.13;2180020;80;29841;-65
2022/08/13 00:54:49;;;;;;;14.13;11.90;;;;;;;19.03;67.74;100510.00;2194059;80;32405;-62
2022/08/13 00:57:51;;;;;;;14.20;11.68;;;;;;;19.06;67.92;100508.88;2142733;81;33413;-66
2022/08/13 01:00:56;;;;;;;15.10;11.40;;;;;;;19.11;67.99;100514.80;2157852;80;29744;-64
2022/08/13 01:03:58;;;;;;;13.65;12.23;;;;;;;19.15;68.39;100515.40;2158745;80;27635;-65
2022/08/13 01:07:01;;;;;;;14.40;12.93;;;;;;;19.18;67.92;100509.24;2095240;82;28681;-65
2022/08/13 01:10:05;;;;;;;15.78;12.68;;;;;;;19.21;68.14;100508.96;2120825;82;32046;-64
2022/08/13 01:13:11;;;;;;;13.45;12.10;;;;;;;19.25;67.84;100510.44;2118203;83;33038;-67
2022/08/13 01:16:14;;;;;;;15.58;12.43;;;;;;;19.28;68.23;100504.77;2076732;83;33577;-67
2022/08/13 01:19:15;;;;;;;13.48;12.07;;;;;;;19.33;68.09;100507.09;2096048;82;27926;-63
2022/08/13 01:22:18;;;;;;;13.68;11.78;;;;;;;19.36;68.24;100497.33;2088313;82;28736;-64
2022/08/13 01:25:24;;;;;;;12.82;11.50;;;;;;;19.41;68.48;100493.73;2117068;82;31096;-65
2022/08/13 01:28:28;;;;;;;14.10;12.68;;;;;;;19.46;68.73;100482.47;2137303;80;33012;-66
2022/08/13 01:31:31;;;;;;;13.28;11.60;;;;;;;19.51;68.75;100487.03;2145025;80;32050;-67
2022/08/13 01:34:33;;;;;;;13.18;11.60;;;;;;;19.55;68.59;100480.32;2156525;81;27739;-67
2022/08/13 01:37:37;;;;;;;13.15;11.75;;;;;;;19.60;68.73;100475.88;2144545;80;29093;-67
2022/08/13 01:40:38;;;;;;;12.20;10.93;;;;;;;19.66;68.59;100478.56;2142950;80;31474;-61
2022/08/13 01:43:43;;;;;;;15.00;11.22;;;;;;;19.69;68.51;100471.00;2153813;82;33108;-61
2022/08/13 01:53:29;;;;;;;13.88;11.53;;;;;;;19.81;68.40;100472.30;2112235;80;30036;-66
2022/08/13 01:56:32;;;;;;;12.93;11.63;;;;;;;19.83;68.41;100471.66;2098952;82;32418;-70
2022/08/13 01:59:36;;;;;;;13.60;12.28;;;;;;;19.84;68.50;100474.75;2105112;82;33488;-63
2022/08/13 02:02:39;;;;;;;12.47;11.27;;;;;;;19.85;68.92;100477.36;2106110;82;29379;-68
2022/08/13 02:05:40;;;;;;;15.90;12.43;;;;;;;19.85;69.16;100471.92;2117611;83;27685;-68
2022/08/13 02:08:42;;;;;;;12.73;11.45;;;;;;;19.85;69.24;100474.64;2110687;81;29119;-68
2022/08/13 02:11:44;;;;;;;15.58;12.30;;;;;;;19.83;69.52;100472.55;2097571;82;31006;-66
2022/08/13 02:14:47;;;;;;;13.15;11.83;;;;;;;19.82;69.53;100472.18;2101085;83;33663;-64
2022/08/13 02:17:48;;;;;;;12.82;11.63;;;;;;;19.81;69.68;100465.50;2107528;82;29408;-69
2022/08/13 02:20:57;;;;;;;13.58;12.18;;;;;;;19.82;69.85;100469.94;2116879;82;27753;-66
2022/08/13 02:23:59;;;;;;;12.60;11.30;;;;;;;19.79;69.99;100462.92;2148255;82;29363;-63
2022/08/13 02:27:01;;;;;;;13.13;11.70;;;;;;;19.79;70.00;100464.77;2161511;81;31452;-65
2022/08/13 02:30:04;;;;;;;14.28;11.93;;;;;;;19.79;70.20;100463.41;2146554;80;33036;-65
2022/08/13 02:33:06;;;;;;;11.80;10.70;;;;;;;19.77;70.16;100463.55;2131633;80;30152;-63
2022/08/13 02:36:10;;;;;;;12.25;10.98;;;;;;;19.79;70.21;100457.97;2139613;81;27649;-62
2022/08/13 02:39:11;;;;;;;11.40;10.25;;;;;;;19.79;70.29;100460.20;2133849;81;28472;-63
2022/08/13 02:42:12;;;;;;;11.55;10.38;;;;;;;19.80;70.23;100454.25;2159179;80;31068;-64
2022/08/13 02:45:16;;;;;;;12.68;10.30;;;;;;;19.80;70.22;100452.41;2151800;80;32341;-62
2022/08/13 02:48:17;;;;;;;12.33;11.08;;;;;;;19.81;70.32;100450.55;2138706;81;30393;-68
2022/08/13 02:51:20;;;;;;;11.75;10.65;;;;;;;19.79;70.43;100456.12;2121286;80;27720;-65
2022/08/13 02:54:22;;;;;;;12.05;10.82;;;;;;;19.78;70.51;100448.09;2116067;84;29769;-68
2022/08/13 02:57:24;;;;;;;12.60;11.35;;;;;;;19.77;70.60;100449.11;2112665;83;31390;-61
2022/08/13 03:00:25;;;;;;;12.53;11.35;;;;;;;19.75;70.79;100453.30;2122509;83;33439;-61
2022/08/13 03:03:27;;;;;;;14.90;13.45;;;;;;;19.75;70.98;100453.30;2112735;83;29383;-63
2022/08/13 03:06:29;;;;;;;13.98;12.58;;;;;;;19.70;71.25;100450.98;2119915;81;28104;-62
2022/08/13 03:09:30;;;;;;;14.75;12.53;;;;;;;19.65;71.49;100446.43;2097775;82;29977;-62
2022/08/13 03:12:32;;;;;;;13.95;12.55;;;;;;;19.60;71.61;100445.98;2094309;82;30977;-62
2022/08/13 03:15:36;;;;;;;16.20;13.55;;;;;;;19.55;71.80;100442.28;2119507;82;33046;-66
2022/08/13 03:18:37;;;;;;;13.95;12.50;;;;;;;19.51;72.05;100439.48;2107007;83;30349;-62
2022/08/13 03:21:43;;;;;;;14.30;12.95;;;;;;;19.47;72.12;100438.02;2118231;82;28254;-62
2022/08/13 03:24:45;;;;;;;14.13;12.73;;;;;;;19.43;72.24;100431.98;2150438;80;28766;-62
2022/08/13 03:27:47;;;;;;;15.63;13.70;;;;;;;19.40;72.35;100428.64;2141053;81;31953;-60
2022/08/13 03:30:49;;;;;;;14.13;12.73;;;;;;;19.37;72.35;100435.69;2147553;80;33060;-64
2022/08/13 03:33:53;;;;;;;15.53;13.88;;;;;;;19.36;72.61;100441.64;2147651;81;29375;-62
2022/08/13 03:36:54;;;;;;;18.32;14.47;;;;;;;19.35;72.89;100437.70;2148513;81;27791;-64
2022/08/13 03:39:55;;;;;;;14.50;13.05;;;;;;;19.32;72.76;100431.16;2127298;80;29940;-62
2022/08/13 03:43:02;;;;;;;15.00;13.38;;;;;;;19.30;72.95;100420.92;2143597;81;32084;-61
2022/08/13 03:46:04;;;;;;;14.33;12.90;;;;;;;19.28;73.16;100428.70;2148270;82;33583;-61
2022/08/13 03:49:05;;;;;;;15.18;13.72;;;;;;;19.25;73.12;100433.54;2150159;82;29459;-60
2022/08/13 03:52:07;;;;;;;15.25;13.83;;;;;;;19.26;73.23;100431.19;2120986;81;27701;-61
2022/08/13 03:55:12;;;;;;;15.78;14.18;;;;;;;19.26;73.29;100423.89;2111775;83;28843;-65
2022/08/13 03:58:17;;;;;;;16.57;14.87;;;;;;;19.27;73.38;100432.92;2111044;82;32454;-64
2022/08/13 04:01:18;;;;;;;16.48;13.83;;;;;;;19.27;73.41;100432.41;2106246;83;34161;-63
2022/08/13 04:04:20;;;;;;;16.23;14.63;;;;;;;19.26;73.39;100428.48;2104483;82;30362;-62
2022/08/13 04:07:21;;;;;;;15.08;13.50;;;;;;;19.27;73.46;100431.05;2159391;80;27659;-68
2022/08/13 04:10:23;;;;;;;14.68;13.20;;;;;;;19.27;73.46;100428.34;2157648;80;29088;-62
2022/08/13 04:13:26;;;;;;;15.18;13.62;;;;;;;19.27;73.51;100425.62;2161037;80;31940;-61
2022/08/13 04:16:28;;;;;;;14.78;13.18;;;;;;;19.28;73.86;100421.91;2111313;83;33060;-61
2022/08/13 04:19:33;;;;;;;13.55;12.23;;;;;;;19.27;73.74;100422.90;2117011;82;30515;-61
2022/08/13 04:22:33;;;;;;;14.58;13.08;;;;;;;19.25;74.13;100417.24;2125591;80;27665;-65
2022/08/13 04:25:36;;;;;;;15.08;13.53;;;;;;;19.22;74.02;100406.13;2131151;81;29622;-63
2022/08/13 04:28:38;;;;;;;14.73;12.95;;;;;;;19.22;73.98;100416.98;2153961;80;30795;-63
2022/08/13 04:31:39;;;;;;;13.85;12.50;;;;;;;19.22;74.21;100412.06;2136269;80;33728;-68
2022/08/13 04:34:40;;;;;;;15.35;13.83;;;;;;;19.21;74.21;100407.63;2136371;81;29810;-61
2022/08/13 04:37:42;;;;;;;13.78;12.37;;;;;;;19.21;74.28;100406.27;2156522;82;27680;-62
2022/08/13 04:40:46;;;;;;;13.85;12.58;;;;;;;19.19;74.43;100400.09;2123191;82;29125;-61
2022/08/13 04:43:47;;;;;;;12.88;11.57;;;;;;;19.18;74.43;100395.66;2149399;81;31910;-62
2022/08/13 04:46:48;;;;;;;16.27;14.73;;;;;;;19.20;74.70;100402.67;2153216;81;32758;-62
2022/08/13 04:49:49;;;;;;;15.13;13.35;;;;;;;19.20;74.71;100409.46;2147711;82;29245;-68
2022/08/13 04:52:53;;;;;;;14.63;13.13;;;;;;;19.20;74.80;100413.53;2140979;82;27672;-67
2022/08/13 04:55:56;;;;;;;13.90;12.10;;;;;;;19.22;74.90;100412.91;2144456;82;28887;-60
2022/08/13 04:58:57;;;;;;;13.05;11.78;;;;;;;19.24;74.93;100415.52;2170257;80;31836;-61
2022/08/13 05:01:59;;;;;;;15.15;13.15;;;;;;;19.27;74.91;100413.91;2196226;80;34169;-62
2022/08/13 05:05:01;;;;;;;14.55;13.15;;;;;;;19.30;75.08;100414.98;2197319;80;29361;-62
2022/08/13 05:08:05;;;;;;;15.13;13.68;;;;;;;19.33;75.09;100416.59;2195939;80;28309;-64
2022/08/13 05:11:12;;;;;;;15.50;13.83;;;;;;;19.35;75.34;100423.61;2201362;80;29546;-61
2022/08/13 05:14:10;;;;;;;16.17;14.40;;;;;;;19.38;75.59;100418.40;2200012;80;31049;-61
2022/08/13 05:17:11;;;;;;;14.13;12.73;;;;;;;19.39;75.79;100419.65;2198596;80;32856;-64
2022/08/13 05:20:15;;;;;;;14.33;13.00;;;;;;;19.40;75.99;100415.06;2194712;80;30595;-61
2022/08/13 05:23:15;;;;;;;13.53;12.23;;;;;;;19.37;75.88;100418.03;2182832;80;27852;-61
2022/08/13 05:26:17;;;;;;;14.80;13.40;;;;;;;19.34;76.06;100413.73;2197527;80;28680;-60
2022/08/13 05:29:19;;;;;;;15.78;14.00;;;;;;;19.33;76.36;100409.80;2197996;80;30932;-61
2022/08/13 05:32:20;;;;;;;13.98;12.55;;;;;;;19.32;76.42;100406.72;2200633;80;33713;-62
2022/08/13 05:35:22;;;;;;;15.65;14.15;;;;;;;19.34;76.75;100405.58;2198098;80;29382;-64
2022/08/13 05:38:26;;;;;;;16.02;14.43;;;;;;;19.34;76.84;100411.02;2195930;80;27657;-61
2022/08/13 05:41:28;;;;;;;16.40;14.70;;;;;;;19.35;76.92;100406.46;2199549;80;29513;-61
2022/08/13 05:44:32;;;;;;;16.05;14.38;;;;;;;19.33;77.20;100407.09;2197771;80;31857;-62
2022/08/13 05:47:32;;;;;;;16.45;14.85;;;;;;;19.31;77.26;100404.99;2198638;80;34232;-60
2022/08/13 05:50:33;;;;;;;18.30;16.45;;;;;;;19.33;77.56;100407.93;2192823;80;29730;-66
2022/08/13 05:53:36;;;;;;;18.42;16.52;;;;;;;19.32;77.67;100406.72;2159914;80;27758;-61
2022/08/13 05:56:38;;;;;;;16.52;14.83;;;;;;;19.32;77.68;100404.00;2157884;80;29723;-61
2022/08/13 06:06:18;;;;;;;18.37;16.40;;;;;;;19.32;78.04;100402.13;2158378;80;29434;-67
2022/08/13 06:09:19;;;;;;;20.35;18.23;;;;;;;19.32;78.22;100400.77;2162148;80;28012;-70
2022/08/13 06:12:21;;;;;;;19.27;17.40;;;;;;;19.32;78.29;100398.56;2159924;80;28501;-63
2022/08/13 06:15:23;;;;;;;19.80;17.87;;;;;;;19.33;78.56;100399.78;2158864;80;31154;-61
2022/08/13 06:18:31;;;;;;;22.05;19.65;;;;;;;19.33;78.50;100396.22;2158871;81;34100;-63
2022/08/13 06:21:33;;;;;;;21.93;19.52;;;;;;;19.34;78.75;100404.22;2190032;80;29407;-64
2022/08/13 06:24:37;;;;;;;21.55;19.23;;;;;;;19.30;78.76;100404.62;2200361;80;27601;-66
2022/08/13 06:27:38;;;;;;;25.32;19.73;;;;;;;19.28;79.08;100406.97;2197770;80;30049;-63
2022/08/13 06:30:40;;;;;;;22.62;19.98;;;;;;;19.27;79.18;100403.89;2195874;80;30948;-62
2022/08/13 06:33:44;;;;;;;22.13;19.85;;;;;;;19.26;79.25;100399.45;2195878;80;32865;-61
2022/08/13 06:36:45;;;;;;;24.90;20.32;;;;;;;19.27;79.52;100398.45;2200092;80;30164;-64
2022/08/13 06:39:47;;;;;;;22.77;20.45;;;;;;;19.32;79.53;100398.56;2201156;80;27816;-66
2022/08/13 06:42:49;;;;;;;23.55;21.17;;;;;;;19.35;79.54;100396.44;2198377;80;28682;-62
2022/08/13 06:45:50;;;;;;;24.92;22.13;;;;;;;19.38;79.85;100392.59;2196071;80;31378;-64
2022/08/13 06:48:52;;;;;;;24.72;21.77;;;;;;;19.44;79.89;100394.80;2195574;79;32897;-61
2022/08/13 06:51:55;;;;;;;25.00;21.37;;;;;;;19.49;79.70;100403.90;2165300;80;29383;-68
2022/08/13 06:54:57;;;;;;;25.55;21.30;;;;;;;19.53;79.77;100399.94;2138382;81;28395;-63
2022/08/13 06:57:59;;;;;;;25.00;22.35;;;;;;;19.59;79.73;100406.22;2161841;81;29922;-68
2022/08/13 07:01:02;;;;;;;23.47;20.57;;;;;;;19.65;79.68;100400.73;2163754;80;32421;-62
2022/08/13 07:04:03;;;;;;;24.25;21.82;;;;;;;19.71;80.01;100402.42;2157999;80;33968;-62
2022/08/13 07:07:05;;;;;;;24.77;21.70;;;;;;;19.76;79.94;100403.89;2161201;80;30093;-61
2022/08/13 07:10:07;;;;;;;28.05;22.52;;;;;;;19.77;79.56;100396.95;2160212;81;27711;-65
2022/08/13 07:13:09;;;;;;;23.40;21.10;;;;;;;19.85;79.69;100395.80;2160135;80;29103;-62
2022/08/13 07:16:16;;;;;;;23.70;21.15;;;;;;;19.88;79.58;100396.89;2158889;80;32231;-61
2022/08/13 07:19:16;;;;;;;24.35;21.85;;;;;;;19.95;79.44;100392.28;2166017;80;32955;-62
2022/08/13 07:22:17;;;;;;;25.48;21.82;;;;;;;20.00;79.48;100394.95;2198927;80;29327;-67
2022/08/13 07:25:22;;;;;;;22.90;20.60;;;;;;;20.05;79.32;100397.27;2198910;79;27762;-62
2022/08/13 07:28:27;;;;;;;23.65;20.50;;;;;;;20.09;79.22;100392.44;2195923;80;28667;-62
2022/08/13 07:31:34;;;;;;;26.05;22.10;;;;;;;20.17;79.39;100396.20;2196349;80;31840;-63
2022/08/13 07:34:37;;;;;;;24.57;21.93;;;;;;;20.28;79.16;100403.37;2197554;80;33907;-63
2022/08/13 07:37:41;;;;;;;24.30;21.68;;;;;;;20.38;79.06;100395.26;2194984;80;29386;-61
2022/08/13 07:40:50;;;;;;;24.52;21.95;;;;;;;20.47;78.99;100403.97;2196901;79;27634;-62
2022/08/13 07:43:51;;;;;;;23.52;21.23;;;;;;;20.56;78.78;100398.68;2197767;79;28709;-64
2022/08/13 07:46:55;;;;;;;28.50;22.07;;;;;;;20.63;78.62;100402.58;2197970;80;31403;-63
2022/08/13 07:49:58;;;;;;;22.73;20.37;;;;;;;20.70;78.41;100401.52;2190494;80;33144;-62
2022/08/13 07:53:00;;;;;;;24.72;20.68;;;;;;;20.77;78.27;100402.22;2158296;80;30611;-61
2022/08/13 07:56:06;;;;;;;22.13;19.82;;;;;;;20.82;78.17;100402.30;2162032;80;27789;-62
2022/08/13 07:59:12;;;;;;;26.02;21.33;;;;;;;20.85;78.00;100402.03;2160765;80;27971;-63
2022/08/13 08:02:14;;;;;;;25.05;21.95;;;;;;;20.92;78.08;100401.80;2160281;80;31041;-61
2022/08/13 08:05:16;;;;;;;24.43;21.87;;;;;;;20.97;77.55;100405.46;2160267;80;33368;-62
2022/08/13 08:08:18;;;;;;;22.85;20.60;;;;;;;21.02;77.55;100406.75;2160666;80;29731;-61
2022/08/13 08:14:44;;;;;;;23.67;21.30;;;;;;;21.17;77.44;100396.31;2157925;80;29958;-61
2022/08/13 08:17:45;;;;;;;26.97;21.37;;;;;;;21.23;77.27;100405.28;2159600;80;32038;-61
2022/08/13 08:20:46;;;;;;;23.65;21.15;;;;;;;21.27;77.20;100414.51;2183069;80;34187;-62
2022/08/13 08:23:48;;;;;;;32.25;22.00;;;;;;;21.21;76.78;100415.95;2197372;80;29704;-62
2022/08/13 08:26:50;;;;;;;35.43;23.45;;;;;;;21.16;76.95;100415.53;2197484;80;28323;-63
2022/08/13 08:29:53;;;;;;;28.12;22.27;;;;;;;21.00;77.96;100425.61;2182523;80;29854;-67
2022/08/13 08:32:56;;;;;;;24.10;21.25;;;;;;;20.79;77.98;100423.36;2160768;81;31174;-62
2022/08/13 08:35:57;;;;;;;26.17;21.02;;;;;;;20.65;78.80;100425.09;2181798;80;34188;-61
2022/08/13 08:42:35;;;;;;;31.20;25.37;;;;;;;20.40;78.96;100424.55;2139014;81;27631;-62
2022/08/13 08:45:37;;;;;;;27.52;24.47;;;;;;;20.38;79.51;100428.42;2148423;80;29083;-62
2022/08/13 08:48:40;;;;;;;32.30;24.05;;;;;;;20.34;79.83;100425.12;2161867;80;31467;-63
2022/08/13 08:51:41;;;;;;;27.07;24.07;;;;;;;20.25;80.62;100431.37;2142825;82;33808;-67
2022/08/13 08:54:45;;;;;;;28.73;25.68;;;;;;;20.13;81.01;100424.66;2102052;82;29729;-63
2022/08/13 08:57:47;;;;;;;28.40;25.43;;;;;;;20.12;82.71;100430.22;2091922;83;27740;-63
2022/08/13 09:00:50;;;;;;;36.30;26.17;;;;;;;20.05;82.98;100427.19;2098776;83;29632;-62
2022/08/13 09:03:56;;;;;;;28.67;25.65;;;;;;;20.09;83.16;100430.52;2074628;83;31226;-63
2022/08/13 09:06:59;;;;;;;31.65;28.25;;;;;;;20.17;83.42;100423.41;2094865;83;33791;-63
2022/08/13 09:10:00;;;;;;;28.33;24.77;;;;;;;20.33;83.66;100419.31;2099104;83;29138;-62
2022/08/13 09:13:03;;;;;;;31.48;27.13;;;;;;;20.48;83.76;100415.70;2104208;81;28236;-62
2022/08/13 09:16:05;;;;;;;36.05;27.95;;;;;;;20.66;83.82;100413.20;2115873;83;28858;-65
2022/08/13 09:19:13;;;;;;;27.58;24.52;;;;;;;20.93;84.39;100407.09;2111322;82;31038;-69
2022/08/13 09:22:24;;;;;;;28.45;24.98;;;;;;;21.09;83.19;100399.75;2132560;82;32970;-64
2022/08/13 09:25:26;;;;;;;26.45;23.75;;;;;;;21.08;82.48;100405.35;2110913;81;29387;-64
2022/08/13 09:28:28;;;;;;;22.82;20.52;;;;;;;21.08;82.23;100408.92;2107891;82;27733;-66
2022/08/13 09:31:29;;;;;;;26.80;24.02;;;;;;;21.10;82.05;100406.04;2091351;82;29181;-64
2022/08/13 09:34:31;;;;;;;27.05;24.25;;;;;;;21.01;81.72;100409.14;2099283;82;31622;-63
2022/08/13 09:37:33;;;;;;;25.62;23.02;;;;;;;21.05;82.18;100409.20;2089845;82;34231;-63
2022/08/13 09:40:52;;;;;;;26.57;23.80;;;;;;;21.15;82.28;100416.53;2117346;82;29170;-63
2022/08/13 09:43:56;;;;;;;27.27;24.18;;;;;;;21.19;81.93;100404.33;2097757;83;28085;-65
2022/08/13 09:46:57;;;;;;;26.27;23.57;;;;;;;21.31;82.38;100408.66;2098167;82;29845;-64
2022/08/13 09:49:58;;;;;;;27.75;25.08;;;;;;;21.39;82.19;100405.20;2088021;82;31423;-62
2022/08/13 09:52:59;;;;;;;27.00;24.18;;;;;;;21.53;82.08;100411.58;2090171;83;34086;-62
2022/08/13 09:56:01;;;;;;;25.95;23.27;;;;;;;21.68;82.35;100403.82;2111495;82;29413;-63
2022/08/13 09:59:06;;;;;;;24.00;21.50;;;;;;;21.74;81.78;100403.77;2111970;82;27658;-63
2022/08/13 10:02:14;;;;;;;23.87;21.57;;;;;;;21.79;81.32;100400.59;2088052;82;29100;-64
2022/08/13 10:05:12;;;;;;;22.87;20.55;;;;;;;21.97;81.88;100392.00;2116661;82;33035;-66
2022/08/13 10:08:17;;;;;;;18.52;16.62;;;;;;;22.16;81.68;100397.05;2117259;82;34384;-63
2022/08/13 10:11:18;;;;;;;16.48;14.85;;;;;;;22.27;80.94;100395.48;2105731;82;29390;-65
2022/08/13 10:14:20;;;;;;;18.62;16.90;;;;;;;22.32;80.29;100392.29;2102751;82;27748;-65
2022/08/13 10:17:24;;;;;;;18.57;16.97;;;;;;;22.43;80.59;100394.84;2110982;82;47153;-62
2022/08/13 10:20:36;;;;;;;19.05;17.35;;;;;;;22.62;80.60;100388.92;2111396;82;31539;-59
2022/08/13 10:23:38;;;;;;;18.60;16.80;;;;;;;22.76;80.38;100387.03;2086102;82;32994;-62
2022/08/13 10:26:40;;;;;;;17.73;16.02;;;;;;;22.80;79.47;100388.98;2116097;82;29456;-61
2022/08/13 10:29:41;;;;;;;19.75;17.82;;;;;;;22.82;78.98;100387.44;2118616;82;27848;-63
2022/08/13 10:32:43;;;;;;;16.77;15.20;;;;;;;22.80;78.74;100391.70;2103621;82;29492;-62
2022/08/13 10:35:51;;;;;;;17.80;15.95;;;;;;;22.73;78.08;100392.83;2103942;82;31635;-61
2022/08/13 10:38:49;;;;;;;19.57;17.67;;;;;;;22.51;77.56;100389.98;2115621;82;34367;-61
2022/08/13 10:41:51;;;;;;;19.37;17.65;;;;;;;22.38;78.04;100388.97;2096531;82;29828;-62
2022/08/13 10:44:53;;;;;;;20.32;18.35;;;;;;;22.41;78.28;100385.94;2098615;82;27692;-61
2022/08/13 10:47:54;;;;;;;21.40;19.30;;;;;;;22.41;78.68;100383.21;2111819;82;28716;-63
2022/08/13 10:50:56;;;;;;;20.85;18.85;;;;;;;22.57;79.04;100375.73;2085030;82;32410;-62
2022/08/13 10:54:01;;;;;;;19.40;17.50;;;;;;;22.75;78.75;100380.38;2111617;82;34134;-61
2022/08/13 10:57:05;;;;;;;19.25;17.45;;;;;;;22.84;78.16;100375.34;2105390;83;30639;-63
2022/08/13 11:00:10;;;;;;;18.57;16.80;;;;;;;22.90;77.85;100362.44;2104675;83;27751;-61
2022/08/13 11:03:13;;;;;;;;;;;;;;;23.04;77.99;100367.00;2122438;82;29522;-60
2022/08/13 11:06:14;;;;;;;17.98;16.07;;;;;;;23.10;77.37;100351.36;2144575;81;31145;-61
2022/08/13 11:09:15;;;;;;;17.67;15.90;;;;;;;23.15;77.17;100352.25;2129790;82;32740;-60
2022/08/13 11:12:19;;;;;;;17.95;16.15;;;;;;;23.19;76.70;100355.87;2134802;80;29785;-61
2022/08/13 11:15:22;;;;;;;17.20;15.60;;;;;;;23.10;76.05;100347.75;2148583;80;27717;-60
2022/08/13 11:18:23;;;;;;;18.00;15.48;;;;;;;23.02;76.00;100345.31;2108069;82;30463;-61
2022/08/13 11:21:26;;;;;;;17.23;15.53;;;;;;;23.04;76.19;100334.22;2143249;81;31494;-61
2022/08/13 11:24:28;;;;;;;18.10;16.20;;;;;;;23.06;75.62;100347.22;2117547;81;33624;-61
2022/08/13 11:27:34;;;;;;;16.90;15.30;;;;;;;23.05;75.84;100338.66;2119565;81;30287;-63
2022/08/13 11:30:35;;;;;;;17.15;15.53;;;;;;;23.14;75.89;100344.57;2117598;83;27665;-62
2022/08/13 11:33:37;;;;;;;17.17;15.38;;;;;;;23.20;75.63;100335.75;2127712;82;28795;-62
2022/08/13 11:36:39;;;;;;;17.35;15.20;;;;;;;23.32;75.35;100328.69;2109604;82;31089;-62
2022/08/13 11:39:41;;;;;;;15.90;14.40;;;;;;;23.42;74.95;100330.81;2103096;83;33839;-61
2022/08/13 11:42:43;;;;;;;18.32;16.30;;;;;;;23.45;74.55;100320.92;2099969;83;29888;-62
2022/08/13 11:45:46;;;;;;;16.65;15.03;;;;;;;23.62;74.82;100321.03;2126106;82;27800;-63
2022/08/13 11:48:49;;;;;;;16.48;15.00;;;;;;;23.78;74.94;100327.97;2095606;82;28897;-62
2022/08/13 11:51:51;;;;;;;16.52;14.98;;;;;;;23.99;74.19;100334.09;2092289;82;31203;-62
2022/08/13 11:54:53;;;;;;;16.82;15.23;;;;;;;24.05;72.63;100333.45;2105655;82;34202;-62
2022/08/13 11:58:05;;;;;;;17.25;15.65;;;;;;;24.19;73.66;100329.22;2079994;82;29393;-63
2022/08/13 12:01:07;;;;;;;17.07;15.20;;;;;;;24.41;73.71;100323.15;2103485;81;27715;-62
2022/08/13 12:04:12;;;;;;;17.73;16.05;;;;;;;24.55;72.13;100323.03;2092936;83;28163;-61
2022/08/13 12:07:14;;;;;;;17.45;15.72;;;;;;;24.65;71.93;100322.88;2097148;81;31098;-61
2022/08/13 12:10:19;;;;;;;18.37;16.10;;;;;;;24.85;71.56;100311.62;2104892;83;33340;-61
2022/08/13 12:13:20;;;;;;;18.62;16.75;;;;;;;25.02;71.41;100310.61;2094374;83;29398;-61
2022/08/13 12:16:23;;;;;;;17.87;16.25;;;;;;;25.21;70.72;100301.70;2108236;81;28396;-61
2022/08/13 12:19:24;;;;;;;17.90;16.23;;;;;;;25.43;70.49;100303.43;2119364;82;29961;-61
2022/08/13 12:22:26;;;;;;;18.50;16.70;;;;;;;25.58;69.77;100304.93;2092914;82;32260;-61
2022/08/13 12:25:31;;;;;;;19.52;17.50;;;;;;;25.61;69.04;100298.60;2107265;83;34168;-61
2022/08/13 12:28:33;;;;;;;19.32;17.35;;;;;;;25.62;66.94;100299.44;2116521;82;29355;-61
2022/08/13 12:31:35;;;;;;;21.23;19.10;;;;;;;25.52;67.19;100308.39;2115733;81;27660;-63
2022/08/13 12:34:37;;;;;;;19.45;17.50;;;;;;;25.47;67.55;100313.88;2085250;82;29101;-63
2022/08/13 12:37:40;;;;;;;19.73;17.90;;;;;;;25.40;66.96;100308.70;2107350;83;32241;-62
2022/08/13 12:40:44;;;;;;;19.73;17.82;;;;;;;25.41;67.52;100300.81;2107613;81;33038;-61
2022/08/13 12:43:46;;;;;;;19.48;17.60;;;;;;;25.47;67.04;100302.91;2105050;82;30498;-61
2022/08/13 12:46:48;;;;;;;21.12;19.05;;;;;;;25.54;66.96;100303.59;2115594;82;27873;-63
2022/08/13 12:49:50;;;;;;;19.98;17.87;;;;;;;25.63;67.39;100295.17;2098417;82;29111;-61
2022/08/13 12:52:51;;;;;;;20.43;18.32;;;;;;;25.80;67.10;100297.87;2113159;83;30857;-61
2022/08/13 12:55:53;;;;;;;19.77;17.75;;;;;;;25.98;66.59;100301.74;2111614;82;34199;-61
2022/08/13 12:58:54;;;;;;;21.35;19.10;;;;;;;26.07;65.75;100298.45;2121442;82;29809;-61
2022/08/13 13:01:58;;;;;;;20.15;18.23;;;;;;;26.09;65.34;100288.14;2086828;82;27577;-63
2022/08/13 13:05:06;;;;;;;21.20;18.97;;;;;;;26.14;65.47;100287.63;2101264;83;29410;-62
2022/08/13 13:08:28;;;;;;;22.27;20.17;;;;;;;26.24;64.48;100292.38;2106767;82;27697;-62
2022/08/13 13:11:30;;;;;;;21.12;18.90;;;;;;;26.30;65.07;100284.80;2106020;82;34194;-61
2022/08/13 13:14:31;;;;;;;22.07;19.87;;;;;;;26.39;64.74;100285.62;2111735;82;29439;-60
2022/08/13 13:17:35;;;;;;;20.60;18.73;;;;;;;26.49;64.56;100279.89;2094654;83;27622;-62
2022/08/13 13:20:36;;;;;;;21.80;19.60;;;;;;;26.56;64.69;100278.11;2094334;83;29961;-62
2022/08/13 13:23:39;;;;;;;22.58;20.35;;;;;;;26.64;64.57;100262.12;2094917;82;31074;-62
2022/08/13 13:26:42;;;;;;;21.68;19.73;;;;;;;26.67;63.67;100264.48;2116718;82;33563;-62
2022/08/13 13:29:44;;;;;;;22.27;19.75;;;;;;;26.65;63.42;100267.92;2115691;82;29388;-62
2022/08/13 13:32:46;;;;;;;20.52;18.62;;;;;;;26.69;63.41;100261.03;2118787;82;27625;-62
2022/08/13 13:35:51;;;;;;;20.55;18.55;;;;;;;26.74;63.53;100265.47;2115195;82;28706;-62
2022/08/13 13:38:52;;;;;;;21.05;18.90;;;;;;;26.79;63.38;100264.44;2111065;83;32247;-62
2022/08/13 13:41:54;;;;;;;23.38;19.40;;;;;;;26.80;62.68;100265.28;2115496;82;34287;-62
2022/08/13 13:44:57;;;;;;;20.48;18.25;;;;;;;26.73;62.85;100266.50;2116088;83;29831;-63
2022/08/13 13:48:02;;;;;;;20.95;18.82;;;;;;;26.71;62.63;100264.98;2165610;80;27741;-63
2022/08/13 13:51:05;;;;;;;21.00;18.90;;;;;;;26.70;62.94;100264.12;2160451;81;29909;-64
2022/08/13 13:54:07;;;;;;;21.02;18.92;;;;;;;26.73;62.51;100262.38;2169023;80;31230;-62
2022/08/13 13:57:08;;;;;;;21.23;19.12;;;;;;;26.84;63.13;100268.84;2161128;80;33010;-62
2022/08/13 14:00:12;;;;;;;21.17;19.17;;;;;;;27.02;63.31;100264.92;2163109;82;30178;-61
2022/08/13 14:03:14;;;;;;;20.97;18.77;;;;;;;27.15;62.77;100264.30;2161789;81;27606;-61
2022/08/13 14:06:21;;;;;;;21.33;19.27;;;;;;;27.33;62.59;100261.73;2166638;82;29069;-62
2022/08/13 14:09:22;;;;;;;20.62;18.62;;;;;;;27.47;62.46;100262.30;2112049;82;31830;-62
2022/08/13 14:12:23;;;;;;;21.10;17.87;;;;;;;27.47;61.48;100256.79;2127485;82;33872;-62
2022/08/13 14:15:33;;;;;;;18.98;17.07;;;;;;;27.47;61.57;100253.20;2112561;82;29986;-61